createdAt,value
2018-09-13T00:01:31.284Z,67.35
2018-09-13T00:03:59.604Z,67.05
2018-09-13T00:06:27.922Z,67.00
2018-09-13T00:08:56.259Z,67.35
2018-09-13T00:11:24.600Z,67.54
2018-09-13T00:13:52.942Z,67.08
2018-09-13T00:16:21.263Z,67.33
2018-09-13T00:18:49.603Z,66.76
2018-09-13T00:21:17.938Z,68.07
2018-09-13T00:23:46.459Z,68.05
2018-09-13T00:26:14.766Z,67.78
2018-09-13T00:28:43.071Z,67.51
2018-09-13T00:31:11.398Z,67.60
2018-09-13T00:33:39.710Z,67.54
2018-09-13T00:36:08.022Z,67.57
2018-09-13T00:38:36.354Z,67.89
2018-09-13T00:41:04.708Z,67.32
2018-09-13T00:43:33.021Z,67.96
2018-09-13T00:46:01.360Z,67.60
2018-09-13T00:48:29.695Z,67.89
2018-09-13T00:50:58.012Z,67.72
2018-09-13T00:53:26.333Z,67.95
2018-09-13T00:55:54.703Z,67.96
2018-09-13T00:58:23.006Z,67.95
2018-09-13T01:00:51.329Z,67.33
2018-09-13T01:03:19.654Z,67.22
2018-09-13T01:05:47.987Z,67.94
2018-09-13T01:08:16.301Z,68.08
2018-09-13T01:10:44.664Z,68.52
2018-09-13T01:13:13.128Z,67.94
2018-09-13T01:15:41.460Z,68.08
2018-09-13T01:18:09.779Z,66.86
2018-09-13T01:20:38.095Z,68.41
2018-09-13T01:23:07.356Z,67.78
2018-09-13T01:25:35.704Z,68.59
2018-09-13T01:28:04.052Z,68.93
2018-09-13T01:30:32.389Z,68.06
2018-09-13T01:33:00.713Z,68.18
2018-09-13T01:35:29.047Z,68.88
2018-09-13T01:37:57.363Z,69.12
2018-09-13T01:40:25.704Z,69.58
2018-09-13T01:42:54.020Z,68.30
2018-09-13T01:45:22.373Z,69.01
2018-09-13T01:47:50.712Z,68.23
2018-09-13T01:50:19.469Z,69.69
2018-09-13T01:52:47.806Z,69.01
2018-09-13T01:55:16.296Z,68.49
2018-09-13T01:57:44.632Z,68.87
2018-09-13T02:00:12.980Z,68.33
2018-09-13T02:02:41.354Z,68.14
2018-09-13T02:05:09.700Z,68.71
2018-09-13T02:07:38.051Z,69.12
2018-09-13T02:10:06.636Z,68.71
2018-09-13T02:12:34.975Z,68.51
2018-09-13T02:15:03.328Z,69.87
2018-09-13T02:17:31.687Z,68.33
2018-09-13T02:20:00.049Z,69.46
2018-09-13T02:22:28.387Z,68.60
2018-09-13T02:24:56.695Z,69.03
2018-09-13T02:27:25.318Z,68.53
2018-09-13T02:29:53.629Z,69.34
2018-09-13T02:32:22.284Z,68.85
2018-09-13T02:34:50.627Z,68.89
2018-09-13T02:37:19.306Z,68.03
2018-09-13T02:39:48.165Z,68.97
2018-09-13T02:42:16.495Z,69.05
2018-09-13T02:44:44.797Z,69.94
2018-09-13T02:47:13.177Z,69.30
2018-09-13T02:49:41.474Z,70.08
2018-09-13T02:52:09.798Z,69.48
2018-09-13T02:54:38.103Z,70.10
2018-09-13T02:57:06.439Z,69.12
2018-09-13T02:59:34.753Z,69.19
2018-09-13T03:02:03.089Z,70.14
2018-09-13T03:04:31.411Z,69.99
2018-09-13T03:06:59.772Z,69.50
2018-09-13T03:09:28.118Z,68.52
2018-09-13T03:11:56.461Z,69.37
2018-09-13T03:14:24.890Z,69.35
2018-09-13T03:16:53.193Z,69.16
2018-09-13T03:19:21.517Z,69.94
2018-09-13T03:21:49.851Z,70.05
2018-09-13T03:24:18.227Z,70.20
2018-09-13T03:26:46.548Z,70.02
2018-09-13T03:29:14.873Z,69.88
2018-09-13T03:31:43.208Z,69.98
2018-09-13T03:34:11.542Z,70.56
2018-09-13T03:36:39.893Z,70.41
2018-09-13T03:39:09.741Z,70.84
2018-09-13T03:41:38.063Z,71.44
2018-09-13T03:44:06.545Z,72.09
2018-09-13T03:46:35.183Z,71.62
2018-09-13T03:49:03.502Z,72.69
2018-09-13T03:51:31.906Z,71.99
2018-09-13T03:54:00.222Z,72.17
2018-09-13T03:56:28.604Z,72.76
2018-09-13T03:58:56.928Z,71.90
2018-09-13T04:01:25.306Z,71.90
2018-09-13T04:03:53.628Z,72.96
2018-09-13T04:06:21.960Z,73.99
2018-09-13T04:08:50.293Z,72.88
2018-09-13T04:11:18.628Z,72.91
2018-09-13T04:13:46.980Z,73.17
2018-09-13T04:16:15.308Z,73.18
2018-09-13T04:18:43.698Z,72.83
2018-09-13T04:21:11.996Z,73.29
2018-09-13T04:23:40.321Z,73.22
2018-09-13T04:26:08.652Z,72.84
2018-09-13T04:28:36.976Z,72.67
2018-09-13T04:31:05.333Z,72.46
2018-09-13T04:33:33.777Z,72.59
2018-09-13T04:36:02.196Z,72.10
2018-09-13T04:38:30.518Z,72.05
2018-09-13T04:40:58.833Z,72.84
2018-09-13T04:43:27.286Z,72.99
2018-09-13T04:45:55.638Z,72.27
2018-09-13T04:48:23.980Z,71.81
2018-09-13T04:50:52.316Z,72.85
2018-09-13T04:53:20.650Z,71.92
2018-09-13T04:55:49.501Z,72.90
2018-09-13T04:58:17.860Z,73.02
2018-09-13T05:00:46.183Z,72.44
2018-09-13T05:03:14.535Z,73.13
2018-09-13T05:05:42.868Z,72.96
2018-09-13T05:08:11.190Z,72.67
2018-09-13T05:10:39.508Z,72.63
2018-09-13T05:13:07.949Z,72.93
2018-09-13T05:15:36.259Z,74.54
2018-09-13T05:18:04.581Z,74.62
2018-09-13T05:20:32.905Z,73.40
2018-09-13T05:23:01.237Z,72.92
2018-09-13T05:25:29.569Z,72.77
2018-09-13T05:27:57.895Z,73.25
2018-09-13T05:30:26.201Z,72.69
2018-09-13T05:32:54.521Z,73.15
2018-09-13T05:35:22.901Z,73.89
2018-09-13T05:37:51.565Z,72.36
2018-09-13T05:40:19.899Z,72.75
2018-09-13T05:42:48.218Z,72.20
2018-09-13T05:45:16.976Z,72.41
2018-09-13T05:47:45.292Z,72.26
2018-09-13T05:50:14.228Z,72.87
2018-09-13T05:52:42.551Z,71.96
2018-09-13T05:55:10.880Z,72.03
2018-09-13T05:57:39.217Z,72.24
2018-09-13T06:00:07.611Z,72.33
2018-09-13T06:02:35.937Z,72.62
2018-09-13T06:05:04.262Z,71.91
2018-09-13T06:07:32.607Z,71.86
2018-09-13T06:10:00.951Z,72.21
2018-09-13T06:12:29.296Z,71.76
2018-09-13T06:14:57.622Z,71.65
2018-09-13T06:17:25.984Z,72.22
2018-09-13T06:19:54.347Z,71.86
2018-09-13T06:22:22.718Z,71.58
2018-09-13T06:24:51.076Z,72.00
2018-09-13T06:27:19.443Z,71.42
2018-09-13T06:29:47.784Z,71.64
2018-09-13T06:32:16.187Z,71.71
2018-09-13T06:34:44.540Z,71.68
2018-09-13T06:37:12.861Z,73.23
2018-09-13T06:39:41.209Z,72.37
2018-09-13T06:42:09.573Z,71.55
2018-09-13T06:44:37.896Z,71.92
2018-09-13T06:47:06.688Z,71.22
2018-09-13T06:49:35.018Z,71.43
2018-09-13T06:52:03.367Z,70.99
2018-09-13T06:54:31.718Z,70.99
2018-09-13T06:57:00.101Z,70.21
2018-09-13T06:59:28.434Z,70.47
2018-09-13T07:01:56.754Z,70.25
2018-09-13T07:04:25.088Z,70.57
2018-09-13T07:06:53.425Z,69.63
2018-09-13T07:09:21.774Z,70.16
2018-09-13T07:11:50.110Z,70.14
2018-09-13T07:14:18.472Z,70.38
2018-09-13T07:16:46.803Z,69.50
2018-09-13T07:19:15.260Z,69.69
2018-09-13T07:21:43.594Z,69.31
2018-09-13T07:24:11.930Z,68.88
2018-09-13T07:26:40.283Z,68.87
2018-09-13T07:29:08.642Z,68.58
2018-09-13T07:31:36.984Z,68.45
2018-09-13T07:34:05.331Z,68.53
2018-09-13T07:36:33.648Z,69.01
2018-09-13T07:39:02.008Z,68.71
2018-09-13T07:41:30.340Z,68.49
2018-09-13T07:43:58.663Z,69.06
2018-09-13T07:46:26.988Z,68.94
2018-09-13T07:48:55.354Z,68.54
2018-09-13T07:51:23.897Z,68.82
2018-09-13T07:53:52.227Z,69.50
2018-09-13T07:56:20.645Z,70.51
2018-09-13T07:58:49.247Z,70.82
2018-09-13T08:01:17.604Z,70.63
2018-09-13T08:03:45.938Z,70.70
2018-09-13T08:06:14.589Z,70.58
2018-09-13T08:08:43.168Z,72.14
2018-09-13T08:11:11.501Z,72.35
2018-09-13T08:13:39.847Z,71.17
2018-09-13T08:16:08.211Z,71.09
2018-09-13T08:18:36.636Z,70.56
2018-09-13T08:21:05.851Z,72.25
2018-09-13T08:23:34.122Z,70.96
2018-09-13T08:26:02.456Z,70.62
2018-09-13T08:28:30.794Z,71.25
2018-09-13T08:30:59.181Z,70.61
2018-09-13T08:33:27.696Z,70.33
2018-09-13T08:35:55.921Z,70.73
2018-09-13T08:38:24.278Z,70.97
2018-09-13T08:40:52.812Z,70.56
2018-09-13T08:43:21.177Z,71.80
2018-09-13T08:45:49.533Z,72.13
2018-09-13T08:48:17.870Z,72.23
2018-09-13T08:50:46.212Z,70.64
2018-09-13T08:53:14.552Z,71.23
2018-09-13T08:55:42.904Z,71.82
2018-09-13T08:58:11.258Z,71.31
2018-09-13T09:00:39.636Z,71.04
2018-09-13T09:03:07.965Z,71.69
2018-09-13T09:05:36.356Z,71.22
2018-09-13T09:08:04.862Z,71.64
2018-09-13T09:10:33.213Z,71.84
2018-09-13T09:13:01.552Z,71.79
2018-09-13T09:15:29.883Z,71.62
2018-09-13T09:17:58.197Z,71.05
2018-09-13T09:20:26.544Z,70.70
2018-09-13T09:29:55.094Z,71.91
2018-09-13T09:32:23.451Z,71.30
2018-09-13T09:34:51.858Z,71.53
2018-09-13T09:37:20.156Z,72.09
2018-09-13T09:39:48.542Z,72.01
2018-09-13T09:42:16.892Z,71.90
2018-09-13T09:44:45.256Z,73.29
2018-09-13T09:47:13.627Z,72.05
2018-09-13T09:49:41.970Z,72.40
2018-09-13T09:52:10.406Z,71.76
2018-09-13T09:54:38.734Z,72.54
2018-09-13T09:57:07.084Z,71.73
2018-09-13T09:59:35.622Z,71.43
2018-09-13T10:02:09.197Z,70.82
2018-09-13T10:04:37.543Z,72.32
2018-09-13T10:07:05.898Z,71.88
2018-09-13T10:09:34.260Z,72.32
2018-09-13T10:12:02.705Z,71.76
2018-09-13T10:14:31.004Z,71.20
2018-09-13T10:17:04.656Z,70.70
2018-09-13T10:19:38.444Z,71.03
2018-09-13T10:22:12.250Z,71.70
2018-09-13T10:24:45.940Z,71.40
2018-09-13T10:28:18.268Z,71.12
2018-09-13T10:30:51.915Z,71.87
2018-09-13T10:33:25.568Z,71.57
2018-09-13T10:35:59.361Z,71.44
2018-09-13T10:38:33.136Z,71.38
2018-09-13T10:41:06.752Z,72.44
2018-09-13T10:43:40.563Z,71.17
2018-09-13T10:46:14.295Z,70.83
2018-09-13T10:48:47.931Z,71.77
2018-09-13T10:51:21.487Z,71.62
2018-09-13T10:53:54.997Z,72.48
2018-09-13T10:56:23.373Z,71.41
2018-09-13T10:58:51.724Z,71.92
2018-09-13T11:01:20.484Z,71.69
2018-09-13T11:03:48.864Z,71.11
2018-09-13T11:06:17.192Z,71.55
2018-09-13T11:08:45.774Z,71.85
2018-09-13T11:11:14.279Z,71.26
2018-09-13T11:14:17.564Z,72.13
2018-09-13T11:16:46.115Z,71.36
2018-09-13T11:19:14.480Z,71.30
2018-09-13T11:21:42.862Z,71.29
2018-09-13T11:24:11.156Z,71.29
2018-09-13T11:26:39.467Z,70.81
2018-09-13T11:29:07.791Z,70.79
2018-09-13T11:31:36.135Z,70.77
2018-09-13T11:34:04.484Z,70.58
2018-09-13T11:36:32.829Z,71.87
2018-09-13T11:39:01.174Z,71.08
2018-09-13T11:41:29.523Z,71.42
2018-09-13T11:43:57.861Z,71.66
2018-09-13T11:46:26.213Z,71.31
2018-09-13T11:48:54.550Z,71.01
2018-09-13T11:51:22.932Z,71.14
2018-09-13T11:53:51.299Z,70.91
2018-09-13T11:56:19.658Z,71.13
2018-09-13T11:58:48.434Z,70.17
2018-09-13T12:01:16.862Z,69.33
2018-09-13T12:03:45.146Z,69.66
2018-09-13T12:06:13.501Z,70.22
2018-09-13T12:08:41.839Z,69.36
2018-09-13T12:11:10.221Z,69.81
2018-09-13T12:13:38.550Z,69.51
2018-09-13T12:16:06.956Z,68.87
2018-09-13T12:18:36.436Z,68.31
2018-09-13T12:21:06.157Z,68.78
2018-09-13T12:23:35.801Z,67.92
2018-09-13T12:26:04.158Z,68.67
2018-09-13T12:28:32.701Z,68.34
2018-09-13T12:31:01.035Z,68.44
2018-09-13T12:33:29.392Z,69.07
2018-09-13T12:35:58.083Z,69.26
2018-09-13T12:38:26.445Z,68.96
2018-09-13T12:40:54.787Z,68.84
2018-09-13T12:43:23.102Z,68.38
2018-09-13T12:45:51.426Z,68.33
2018-09-13T12:48:19.758Z,67.81
2018-09-13T12:50:48.081Z,68.47
2018-09-13T12:53:16.399Z,67.69
2018-09-13T12:55:50.109Z,68.07
2018-09-13T12:58:18.440Z,68.50
2018-09-13T13:00:46.769Z,67.75
2018-09-13T13:03:15.102Z,67.64
2018-09-13T13:05:43.431Z,68.06
2018-09-13T13:08:11.751Z,66.94
2018-09-13T13:10:40.063Z,67.66
2018-09-13T13:13:08.380Z,67.43
2018-09-13T13:15:36.729Z,66.72
2018-09-13T13:18:05.306Z,66.15
2018-09-13T13:20:33.648Z,66.92
2018-09-13T13:23:01.966Z,67.00
2018-09-13T13:25:30.309Z,66.42
2018-09-13T13:27:58.651Z,66.59
2018-09-13T13:30:27.115Z,66.61
2018-09-13T13:32:55.447Z,66.76
2018-09-13T13:35:23.788Z,66.18
2018-09-13T13:37:52.115Z,66.24
2018-09-13T13:40:20.728Z,66.12
2018-09-13T13:42:49.060Z,66.36
2018-09-13T13:45:17.399Z,66.97
2018-09-13T13:47:45.786Z,65.99
2018-09-13T13:50:14.275Z,66.77
2018-09-13T13:52:42.839Z,65.99
2018-09-13T13:55:11.170Z,66.14
2018-09-13T13:57:39.496Z,66.06
2018-09-13T14:00:08.024Z,66.50
2018-09-13T14:02:36.392Z,66.79
2018-09-13T14:05:04.752Z,66.54
2018-09-13T14:07:33.097Z,66.02
2018-09-13T14:10:01.441Z,66.86
2018-09-13T14:12:29.804Z,67.08
2018-09-13T14:14:58.128Z,66.49
2018-09-13T14:17:26.538Z,66.73
2018-09-13T14:19:54.889Z,67.01
2018-09-13T14:22:23.232Z,66.47
2018-09-13T14:24:51.616Z,66.37
2018-09-13T14:27:19.960Z,66.47
2018-09-13T14:29:48.357Z,66.26
2018-09-13T14:32:16.639Z,66.16
2018-09-13T14:34:45.990Z,66.71
2018-09-13T14:37:14.361Z,66.61
2018-09-13T14:39:42.667Z,67.05
2018-09-13T14:42:11.017Z,66.25
2018-09-13T14:44:39.350Z,65.74
2018-09-13T14:47:07.704Z,66.67
2018-09-13T14:49:36.082Z,66.43
2018-09-13T14:52:04.432Z,66.84
2018-09-13T14:54:32.777Z,66.15
2018-09-13T14:57:01.101Z,66.20
2018-09-13T14:59:29.467Z,66.66
2018-09-13T15:01:57.805Z,66.83
2018-09-13T15:04:26.252Z,66.34
2018-09-13T15:06:54.667Z,65.94
2018-09-13T15:09:22.980Z,66.97
2018-09-13T15:11:51.308Z,66.60
2018-09-13T15:14:19.644Z,65.79
2018-09-13T15:16:47.961Z,66.10
2018-09-13T15:19:16.286Z,66.28
2018-09-13T15:21:45.751Z,66.53
2018-09-13T15:24:14.122Z,66.84
2018-09-13T15:26:42.500Z,66.56
2018-09-13T15:29:10.867Z,66.64
2018-09-13T15:31:39.217Z,67.70
2018-09-13T15:34:07.664Z,68.45
2018-09-13T15:36:35.975Z,69.39
2018-09-13T15:39:06.499Z,69.83
2018-09-13T15:41:34.852Z,71.21
2018-09-13T15:44:03.192Z,70.84
2018-09-13T15:46:31.540Z,70.44
2018-09-13T15:48:59.871Z,71.43
2018-09-13T15:51:28.195Z,70.51
2018-09-13T15:53:56.563Z,71.52
2018-09-13T15:56:24.981Z,72.82
2018-09-13T15:58:53.356Z,73.22
2018-09-13T16:01:21.740Z,73.64
2018-09-13T16:03:50.094Z,74.59
2018-09-13T16:06:18.442Z,73.77
2018-09-13T16:08:46.833Z,74.28
2018-09-13T16:11:15.219Z,74.49
2018-09-13T16:13:43.564Z,75.12
2018-09-13T16:16:11.880Z,77.18
2018-09-13T16:18:40.264Z,76.73
2018-09-13T16:21:08.900Z,78.54
2018-09-13T16:23:37.352Z,78.90
2018-09-13T16:26:05.676Z,79.79
2018-09-13T16:28:34.113Z,79.91
2018-09-13T16:31:02.439Z,79.86
2018-09-13T16:33:30.784Z,81.32
2018-09-13T16:36:00.632Z,80.02
2018-09-13T16:38:34.230Z,79.03
2018-09-13T16:41:09.104Z,79.81
2018-09-13T16:43:42.791Z,79.69
2018-09-13T16:46:17.704Z,78.34
2018-09-13T16:48:46.068Z,79.27
2018-09-13T16:51:14.389Z,80.01
2018-09-13T16:53:42.715Z,79.30
2018-09-13T16:56:11.052Z,79.15
2018-09-13T16:58:39.385Z,78.79
2018-09-13T17:01:07.764Z,78.14
2018-09-13T17:03:36.096Z,78.44
2018-09-13T17:06:04.402Z,77.83
2018-09-13T17:08:32.732Z,79.85
2018-09-13T17:11:01.050Z,79.30
2018-09-13T17:13:29.415Z,79.28
2018-09-13T17:15:57.740Z,78.41
2018-09-13T17:18:26.069Z,78.58
2018-09-13T17:20:54.451Z,78.01
2018-09-13T17:23:22.796Z,79.01
2018-09-13T17:25:51.196Z,78.46
2018-09-13T17:28:19.527Z,79.37
2018-09-13T17:30:47.909Z,78.75
2018-09-13T17:33:16.249Z,78.87
2018-09-13T17:35:44.596Z,78.25
2018-09-13T17:38:13.014Z,78.69
2018-09-13T17:40:41.586Z,79.05
2018-09-13T17:43:09.924Z,79.89
2018-09-13T17:45:38.290Z,78.52
2018-09-13T17:48:06.653Z,78.75
2018-09-13T17:50:34.977Z,78.76
2018-09-13T17:53:03.307Z,79.58
2018-09-13T17:55:33.382Z,78.73
2018-09-13T17:58:03.094Z,80.29
2018-09-13T18:00:31.500Z,79.93
2018-09-13T18:02:59.852Z,80.49
2018-09-13T18:05:28.200Z,79.61
2018-09-13T18:07:56.525Z,80.25
2018-09-13T18:10:24.872Z,80.33
2018-09-13T18:12:53.252Z,80.94
2018-09-13T18:15:21.597Z,80.58
2018-09-13T18:17:49.964Z,80.52
2018-09-13T18:20:18.391Z,81.17
2018-09-13T18:22:46.755Z,79.78
2018-09-13T18:25:15.148Z,82.67
2018-09-13T18:27:43.548Z,83.49
2018-09-13T18:30:11.872Z,83.41
2018-09-13T18:32:40.221Z,82.93
2018-09-13T18:35:08.548Z,84.53
2018-09-13T18:37:36.993Z,84.71
2018-09-13T18:40:05.509Z,84.41
2018-09-13T18:42:33.842Z,83.93
2018-09-13T18:45:02.227Z,83.87
2018-09-13T18:47:30.590Z,83.44
2018-09-13T18:49:58.984Z,84.25
2018-09-13T18:52:27.316Z,84.89
2018-09-13T18:54:55.698Z,84.89
2018-09-13T18:57:24.089Z,85.68
2018-09-13T18:59:52.427Z,86.28
2018-09-13T19:02:20.777Z,85.63
2018-09-13T19:04:49.144Z,85.75
2018-09-13T19:07:17.604Z,86.18
2018-09-13T19:09:45.908Z,86.31
2018-09-13T19:12:14.264Z,86.10
2018-09-13T19:14:42.613Z,84.80
2018-09-13T19:17:11.025Z,84.85
2018-09-13T19:19:39.295Z,85.30
2018-09-13T19:22:07.683Z,84.75
2018-09-13T19:24:35.996Z,84.92
2018-09-13T19:27:04.334Z,85.24
2018-09-13T19:29:32.714Z,84.68
2018-09-13T19:32:01.087Z,84.76
2018-09-13T19:34:29.429Z,85.55
2018-09-13T19:36:57.758Z,84.08
2018-09-13T19:39:26.134Z,84.64
2018-09-13T19:41:54.474Z,84.00
2018-09-13T19:44:22.853Z,85.17
2018-09-13T19:46:51.176Z,85.05
2018-09-13T19:49:19.538Z,84.56
2018-09-13T19:51:48.034Z,85.16
2018-09-13T19:54:16.562Z,85.38
2018-09-13T19:56:44.913Z,85.17
2018-09-13T19:59:13.327Z,84.03
2018-09-13T20:01:42.430Z,83.48
2018-09-13T20:04:10.979Z,84.17
2018-09-13T20:06:39.443Z,83.63
2018-09-13T20:09:09.766Z,83.55
2018-09-13T20:11:38.147Z,83.63
2018-09-13T20:14:06.615Z,83.91
2018-09-13T20:16:34.964Z,83.70
2018-09-13T20:19:03.341Z,84.61
2018-09-13T20:21:31.673Z,84.69
2018-09-13T20:24:00.255Z,83.36
2018-09-13T20:26:28.601Z,83.57
2018-09-13T20:28:56.960Z,83.58
2018-09-13T20:31:25.666Z,82.94
2018-09-13T20:33:54.017Z,83.14
2018-09-13T20:36:22.356Z,83.73
2018-09-13T20:38:50.780Z,84.43
2018-09-13T20:41:19.101Z,82.94
2018-09-13T20:43:47.437Z,83.45
2018-09-13T20:46:15.770Z,83.33
2018-09-13T20:48:44.345Z,85.14
2018-09-13T20:51:12.632Z,83.79
2018-09-13T20:53:41.000Z,83.75
2018-09-13T20:56:09.356Z,85.26
2018-09-13T20:58:37.681Z,84.47
2018-09-13T21:01:06.015Z,84.21
2018-09-13T21:03:34.391Z,83.95
2018-09-13T21:06:02.736Z,84.45
2018-09-13T21:08:31.037Z,82.96
2018-09-13T21:10:59.364Z,82.39
2018-09-13T21:13:27.850Z,83.39
2018-09-13T21:15:56.185Z,83.76
2018-09-13T21:18:24.912Z,83.21
2018-09-13T21:20:53.334Z,82.85
2018-09-13T21:23:21.647Z,82.42
2018-09-13T21:25:50.002Z,82.25
2018-09-13T21:28:18.366Z,82.99
2018-09-13T21:30:46.833Z,82.67
2018-09-13T21:33:15.376Z,82.97
2018-09-13T21:35:44.122Z,83.81
2018-09-13T21:38:12.541Z,83.14
2018-09-13T21:40:40.917Z,83.79
2018-09-13T21:43:09.236Z,82.94
2018-09-13T21:45:37.626Z,83.16
2018-09-13T21:48:06.277Z,82.88
2018-09-13T21:50:34.673Z,83.22
2018-09-13T21:53:03.019Z,84.09
2018-09-13T21:55:31.377Z,84.26
2018-09-13T21:57:59.740Z,83.94
2018-09-13T22:00:28.109Z,83.39
2018-09-13T22:02:57.559Z,83.88
2018-09-13T22:05:25.950Z,83.38
2018-09-13T22:07:54.330Z,82.65
2018-09-13T22:10:22.714Z,83.32
2018-09-13T22:12:51.098Z,83.46
2018-09-13T22:15:19.615Z,82.78
2018-09-13T22:17:47.952Z,82.04
2018-09-13T22:20:16.332Z,82.36
2018-09-13T22:22:44.828Z,82.70
2018-09-13T22:25:13.259Z,83.86
2018-09-13T22:27:41.660Z,83.09
2018-09-13T22:30:10.049Z,82.62
2018-09-13T22:32:38.400Z,82.82
2018-09-13T22:35:06.774Z,82.26
2018-09-13T22:37:36.104Z,82.24
2018-09-13T22:40:04.629Z,82.85
2018-09-13T22:42:33.164Z,82.53
2018-09-13T22:45:02.162Z,82.96
2018-09-13T22:47:31.026Z,83.15
2018-09-13T22:49:59.381Z,84.03
2018-09-13T22:52:27.910Z,83.51
2018-09-13T22:54:56.237Z,84.51
2018-09-13T22:57:24.980Z,84.97
2018-09-13T22:59:53.450Z,85.33
2018-09-13T23:02:21.780Z,84.80
2018-09-13T23:04:50.118Z,85.15
2018-09-13T23:07:18.472Z,85.66
2018-09-13T23:09:46.979Z,85.33
2018-09-13T23:12:15.336Z,85.47
2018-09-13T23:14:43.676Z,84.95
2018-09-13T23:17:12.037Z,85.65
2018-09-13T23:19:40.426Z,85.47
2018-09-13T23:22:10.759Z,84.87
2018-09-13T23:24:39.129Z,85.50
2018-09-13T23:27:09.216Z,85.14
2018-09-13T23:29:37.798Z,84.52
2018-09-13T23:32:06.360Z,84.58
2018-09-13T23:34:34.696Z,84.04
2018-09-13T23:37:03.042Z,84.35
2018-09-13T23:39:31.601Z,84.63
2018-09-13T23:41:59.713Z,85.24
2018-09-13T23:44:28.052Z,85.60
2018-09-13T23:46:56.389Z,84.92
2018-09-13T23:49:24.720Z,84.95
2018-09-13T23:51:53.045Z,84.72
2018-09-13T23:54:21.377Z,84.24
2018-09-13T23:56:49.769Z,83.75
2018-09-13T23:59:18.149Z,84.55
